Time;durP1;ratioP1;P1;durP2;ratioP2;P2;SDS_P1;SDS_P2;PMS_P1;PMS_P2;Temp;Humidity;BMP_temperature;BMP_pressure;BME280_temperature;BME280_humidity;BME280_pressure;Samples;Min_cycle;Max_cycle;Signal;HPM_P1;HPM_P2
2023/08/29 00:02:30;;;;;;;5.33;2.43;;;14.30;99.90;;;;;;5039947;28;20454;-51
2023/08/29 00:04:57;;;;;;;6.53;2.10;;;14.20;99.90;;;;;;5036761;28;20467;-51
2023/08/29 00:07:23;;;;;;;2.53;2.00;;;14.10;99.90;;;;;;5032024;28;20478;-51
2023/08/29 00:09:52;;;;;;;4.37;2.80;;;14.10;99.90;;;;;;5029309;28;20510;-51
2023/08/29 00:12:20;;;;;;;2.20;2.00;;;14.00;99.90;;;;;;5033045;28;20482;-52
2023/08/29 00:14:47;;;;;;;3.47;2.13;;;14.00;99.90;;;;;;5021665;28;20465;-52
2023/08/29 00:17:16;;;;;;;2.60;2.07;;;14.00;99.90;;;;;;5029495;28;20482;-51
2023/08/29 00:19:42;;;;;;;3.67;1.97;;;13.90;99.90;;;;;;5035329;28;20480;-51
2023/08/29 00:22:09;;;;;;;15.13;1.80;;;13.90;99.90;;;;;;5032514;28;20516;-53
2023/08/29 00:24:36;;;;;;;3.30;2.30;;;13.90;99.90;;;;;;5029242;28;20462;-52
2023/08/29 00:27:04;;;;;;;2.90;2.20;;;13.90;99.90;;;;;;5032508;28;20482;-52
2023/08/29 00:29:30;;;;;;;3.13;2.83;;;13.90;99.90;;;;;;5037740;28;20463;-50
2023/08/29 00:31:57;;;;;;;2.30;2.10;;;13.90;99.90;;;;;;5034172;28;20532;-52
2023/08/29 00:34:23;;;;;;;3.17;2.23;;;13.90;99.90;;;;;;5037277;28;20877;-53
2023/08/29 00:36:51;;;;;;;2.17;2.00;;;13.80;99.90;;;;;;5028678;28;20514;-51
2023/08/29 00:39:18;;;;;;;5.37;2.50;;;13.80;99.90;;;;;;5034942;28;20549;-50
2023/08/29 00:41:48;;;;;;;4.80;2.70;;;13.80;99.90;;;;;;5034041;28;20462;-52
2023/08/29 00:44:16;;;;;;;11.13;2.50;;;13.90;99.90;;;;;;5030395;28;20490;-52
2023/08/29 00:46:43;;;;;;;2.10;2.00;;;13.90;99.90;;;;;;5028311;28;20569;-50
2023/08/29 00:49:12;;;;;;;5.53;2.30;;;13.90;99.90;;;;;;5048664;28;20485;-52
2023/08/29 00:51:39;;;;;;;4.83;2.43;;;13.90;99.90;;;;;;5045678;28;20522;-52
2023/08/29 00:54:07;;;;;;;6.37;2.40;;;14.00;99.90;;;;;;5031513;28;20490;-52
2023/08/29 00:56:34;;;;;;;2.03;1.90;;;14.00;99.90;;;;;;5033072;28;20470;-52
2023/08/29 00:59:02;;;;;;;3.83;2.10;;;14.00;99.90;;;;;;5040125;28;20457;-52
2023/08/29 01:01:33;;;;;;;3.43;2.53;;;14.00;99.90;;;;;;5032620;28;20455;-51
2023/08/29 01:06:34;;;;;;;3.60;2.60;;;14.00;99.90;;;;;;5033050;28;20475;-51
2023/08/29 01:09:01;;;;;;;2.50;1.87;;;14.10;99.90;;;;;;5036132;28;20544;-52
2023/08/29 01:11:33;;;;;;;2.83;2.30;;;14.00;99.90;;;;;;5034201;28;20513;-52
2023/08/29 01:14:08;;;;;;;2.77;2.27;;;14.10;99.90;;;;;;5037257;28;20605;-52
2023/08/29 01:16:41;;;;;;;4.70;2.17;;;14.10;99.90;;;;;;5031261;28;20563;-53
2023/08/29 01:19:14;;;;;;;2.90;2.10;;;14.10;99.90;;;;;;5030175;28;20450;-51
2023/08/29 01:21:48;;;;;;;3.20;2.27;;;14.20;99.90;;;;;;5029188;28;20510;-53
2023/08/29 01:24:23;;;;;;;4.67;2.00;;;14.20;99.90;;;;;;5032688;28;20747;-52
2023/08/29 01:26:53;;;;;;;3.90;1.77;;;14.20;99.90;;;;;;5034462;28;20509;-52
2023/08/29 01:29:21;;;;;;;1.63;1.50;;;14.20;99.90;;;;;;5037875;28;20454;-52
2023/08/29 01:31:49;;;;;;;3.37;1.70;;;14.20;99.90;;;;;;5044326;28;20991;-52
2023/08/29 01:34:15;;;;;;;2.10;1.93;;;14.20;99.90;;;;;;5037989;28;20516;-51
2023/08/29 01:36:44;;;;;;;6.00;1.80;;;14.30;99.90;;;;;;5039617;28;20482;-51
2023/08/29 01:39:10;;;;;;;2.53;1.90;;;14.20;99.90;;;;;;5035013;28;20931;-51
2023/08/29 01:41:37;;;;;;;3.60;1.50;;;14.30;99.90;;;;;;5040520;28;20455;-52
2023/08/29 01:44:06;;;;;;;1.73;1.50;;;14.30;99.90;;;;;;5041356;28;20493;-52
2023/08/29 01:46:33;;;;;;;5.57;2.10;;;14.30;99.90;;;;;;5041998;28;20490;-52
2023/08/29 01:49:02;;;;;;;1.97;1.33;;;14.30;99.90;;;;;;5034183;28;20581;-53
2023/08/29 01:51:29;;;;;;;2.67;1.67;;;14.30;99.90;;;;;;5036941;28;20507;-52
2023/08/29 01:53:56;;;;;;;1.60;1.50;;;14.30;99.90;;;;;;5033507;28;20461;-52
2023/08/29 01:56:26;;;;;;;2.73;1.40;;;14.30;99.90;;;;;;5040745;28;20510;-51
2023/08/29 01:58:55;;;;;;;1.87;1.70;;;14.30;99.90;;;;;;5024840;28;20522;-51
2023/08/29 02:01:23;;;;;;;6.63;2.17;;;14.40;99.90;;;;;;5039966;28;20482;-51
2023/08/29 02:03:50;;;;;;;5.73;1.60;;;14.30;99.90;;;;;;5031746;28;20923;-52
2023/08/29 02:06:16;;;;;;;5.20;1.83;;;14.40;99.90;;;;;;5033293;28;20934;-51
2023/08/29 02:08:44;;;;;;;2.20;1.40;;;14.40;99.90;;;;;;5028659;28;20972;-50
2023/08/29 02:11:11;;;;;;;2.20;1.50;;;14.40;99.90;;;;;;5032515;28;20550;-52
2023/08/29 02:13:37;;;;;;;1.07;1.07;;;14.40;99.90;;;;;;5031484;28;20458;-51
2023/08/29 02:16:04;;;;;;;1.90;1.47;;;14.40;99.90;;;;;;5034579;28;20517;-52
2023/08/29 02:18:32;;;;;;;1.43;1.33;;;14.40;99.90;;;;;;5030649;28;20459;-52
2023/08/29 02:20:59;;;;;;;3.30;1.40;;;14.40;99.90;;;;;;5032944;28;20590;-52
2023/08/29 02:23:26;;;;;;;4.03;1.67;;;14.40;99.90;;;;;;5035763;28;20560;-52
2023/08/29 02:26:02;;;;;;;1.33;1.23;;;14.40;99.90;;;;;;5030297;28;20499;-52
2023/08/29 02:28:28;;;;;;;3.73;1.43;;;14.40;99.90;;;;;;5037551;28;20553;-51
2023/08/29 02:30:55;;;;;;;1.40;1.30;;;14.40;99.90;;;;;;5032398;28;20494;-50
2023/08/29 02:33:21;;;;;;;2.30;1.20;;;14.50;98.70;;;;;;5033900;28;20533;-53
2023/08/29 02:35:49;;;;;;;3.00;1.17;;;14.40;82.90;;;;;;5032876;28;20517;-51
2023/08/29 02:38:16;;;;;;;5.63;1.47;;;14.40;74.90;;;;;;5034105;28;20481;-53
2023/08/29 02:40:42;;;;;;;1.63;1.30;;;14.40;92.20;;;;;;5033595;28;20490;-51
2023/08/29 02:43:09;;;;;;;1.90;1.60;;;14.40;78.40;;;;;;5033085;28;20544;-52
2023/08/29 02:45:36;;;;;;;1.83;1.10;;;14.40;72.90;;;;;;5033414;28;20462;-51
2023/08/29 02:48:02;;;;;;;2.93;1.37;;;14.40;21.60;;;;;;5035866;28;20555;-51
2023/08/29 02:50:29;;;;;;;2.50;1.33;;;14.40;23.50;;;;;;5037406;28;20516;-51
2023/08/29 02:52:57;;;;;;;2.80;1.17;;;14.40;24.90;;;;;;5030179;28;21062;-51
2023/08/29 02:55:23;;;;;;;2.10;1.23;;;14.40;24.60;;;;;;5030995;28;20991;-52
2023/08/29 02:57:50;;;;;;;2.90;1.20;;;14.40;22.90;;;;;;5034369;28;21040;-52
2023/08/29 03:00:18;;;;;;;2.00;1.10;;;14.40;22.50;;;;;;5032294;28;20499;-52
2023/08/29 03:02:45;;;;;;;4.60;1.80;;;14.40;20.70;;;;;;5029583;28;21027;-51
2023/08/29 03:05:11;;;;;;;1.47;1.20;;;14.40;23.50;;;;;;5038444;28;20497;-52
2023/08/29 03:07:38;;;;;;;1.83;1.03;;;14.40;25.20;;;;;;5032494;28;20494;-51
2023/08/29 03:10:07;;;;;;;1.30;1.03;;;14.40;23.90;;;;;;5038157;28;20472;-51
2023/08/29 03:12:33;;;;;;;4.03;1.20;;;14.40;25.10;;;;;;5036165;28;20532;-51
2023/08/29 03:15:00;;;;;;;2.47;1.07;;;14.40;23.50;;;;;;5041559;28;20491;-51
2023/08/29 03:17:27;;;;;;;2.20;1.30;;;14.40;22.00;;;;;;5034593;28;21066;-52
2023/08/29 03:19:53;;;;;;;1.30;1.20;;;14.40;23.20;;;;;;5037465;28;20458;-51
2023/08/29 03:22:20;;;;;;;1.50;1.40;;;14.40;23.80;;;;;;5045760;28;20478;-51
2023/08/29 03:24:47;;;;;;;1.13;1.00;;;14.40;23.60;;;;;;5031187;28;20462;-52
2023/08/29 03:27:14;;;;;;;6.83;1.50;;;14.40;22.30;;;;;;5030291;28;20492;-51
2023/08/29 03:29:41;;;;;;;1.90;1.47;;;14.30;22.10;;;;;;5032383;28;20513;-51
2023/08/29 03:32:08;;;;;;;2.00;1.47;;;14.30;21.00;;;;;;5031778;28;20548;-51
2023/08/29 03:34:34;;;;;;;2.50;1.37;;;14.30;20.80;;;;;;5028413;28;20462;-51
2023/08/29 03:37:01;;;;;;;2.70;1.30;;;14.30;21.20;;;;;;5033102;28;20506;-50
2023/08/29 03:39:28;;;;;;;4.33;1.53;;;14.30;21.00;;;;;;5032405;28;20498;-52
2023/08/29 03:41:55;;;;;;;1.40;1.30;;;14.30;22.20;;;;;;5028087;28;20454;-52
2023/08/29 03:44:23;;;;;;;2.20;1.10;;;14.30;22.50;;;;;;5028333;28;20487;-51
2023/08/29 03:46:50;;;;;;;1.17;1.03;;;14.30;22.00;;;;;;5032188;28;20483;-50
2023/08/29 03:49:16;;;;;;;2.10;1.27;;;14.20;21.50;;;;;;5033936;28;20804;-51
2023/08/29 03:51:43;;;;;;;1.60;1.20;;;14.20;24.60;;;;;;5029650;28;20918;-51
2023/08/29 03:54:10;;;;;;;6.47;1.43;;;14.20;23.40;;;;;;5033641;28;20532;-52
2023/08/29 03:56:36;;;;;;;4.87;1.50;;;14.20;22.30;;;;;;5032901;28;20474;-52
2023/08/29 03:59:04;;;;;;;1.93;1.33;;;14.20;22.80;;;;;;5030370;28;20536;-51
2023/08/29 04:01:31;;;;;;;1.23;1.03;;;14.20;22.40;;;;;;5029320;28;20459;-51
2023/08/29 04:03:58;;;;;;;2.27;1.40;;;14.20;22.50;;;;;;5025278;28;20459;-51
2023/08/29 04:06:25;;;;;;;4.20;1.37;;;14.30;23.40;;;;;;5030106;28;20993;-52
2023/08/29 04:08:52;;;;;;;2.37;1.30;;;14.20;24.60;;;;;;5031146;28;20886;-51
2023/08/29 04:11:19;;;;;;;1.40;1.30;;;14.20;25.20;;;;;;5033286;28;20573;-52
2023/08/29 04:13:46;;;;;;;7.13;1.27;;;14.20;23.80;;;;;;5031353;28;20486;-50
2023/08/29 04:16:12;;;;;;;1.17;1.07;;;14.20;22.60;;;;;;5030365;28;20521;-50
2023/08/29 04:18:40;;;;;;;1.40;1.23;;;14.20;23.40;;;;;;5033558;28;20513;-51
2023/08/29 04:21:07;;;;;;;1.73;1.63;;;14.30;22.50;;;;;;5025372;28;20452;-51
2023/08/29 04:23:33;;;;;;;1.63;1.33;;;14.20;23.60;;;;;;5036188;28;20459;-52
2023/08/29 04:26:00;;;;;;;1.67;1.13;;;14.20;22.90;;;;;;5031089;28;20463;-51
2023/08/29 04:28:27;;;;;;;3.13;1.20;;;14.20;22.70;;;;;;5024814;28;20960;-51
2023/08/29 04:30:55;;;;;;;1.37;1.27;;;14.20;23.30;;;;;;5030600;28;20555;-51
2023/08/29 04:33:21;;;;;;;4.70;1.00;;;14.20;21.60;;;;;;5032061;28;20482;-51
2023/08/29 04:35:52;;;;;;;2.60;1.30;;;14.30;22.40;;;;;;5026591;28;20509;-51
2023/08/29 04:38:19;;;;;;;3.43;0.97;;;14.20;20.30;;;;;;5037213;28;20508;-51
2023/08/29 04:40:45;;;;;;;4.33;1.20;;;14.30;20.60;;;;;;5025087;28;20466;-51
2023/08/29 04:43:12;;;;;;;1.20;1.10;;;14.30;21.40;;;;;;5030338;28;20501;-56
2023/08/29 04:45:40;;;;;;;2.30;1.30;;;14.30;21.90;;;;;;5026706;28;20520;-52
2023/08/29 04:48:07;;;;;;;3.57;1.17;;;14.30;22.50;;;;;;5028835;28;20486;-53
2023/08/29 04:50:33;;;;;;;1.47;1.37;;;14.30;22.80;;;;;;5021802;28;20516;-51
2023/08/29 04:53:01;;;;;;;3.60;1.53;;;14.30;22.10;;;;;;5026022;28;20541;-51
2023/08/29 04:55:28;;;;;;;1.33;1.23;;;14.30;20.00;;;;;;5021744;28;20483;-53
2023/08/29 04:57:56;;;;;;;1.47;1.00;;;14.40;22.50;;;;;;5030309;28;20510;-50
2023/08/29 05:00:23;;;;;;;1.83;1.50;;;14.30;22.40;;;;;;5033643;28;20533;-52
2023/08/29 05:02:49;;;;;;;6.00;1.30;;;14.40;21.60;;;;;;5030514;28;20490;-52
2023/08/29 05:05:16;;;;;;;3.00;1.33;;;14.40;21.50;;;;;;5031216;28;20494;-52
2023/08/29 05:07:43;;;;;;;2.60;1.47;;;14.40;21.00;;;;;;5042719;28;20457;-50
2023/08/29 05:10:10;;;;;;;3.13;1.20;;;14.40;20.70;;;;;;5025144;28;20464;-51
2023/08/29 05:12:36;;;;;;;2.70;1.50;;;14.30;20.50;;;;;;5031179;28;20509;-51
2023/08/29 05:15:03;;;;;;;1.90;1.43;;;14.40;79.10;;;;;;5030565;28;20897;-51
2023/08/29 05:17:30;;;;;;;4.97;1.47;;;14.30;77.30;;;;;;5029559;28;20916;-50
2023/08/29 05:19:56;;;;;;;1.10;1.07;;;14.40;82.10;;;;;;5026366;28;20459;-51
2023/08/29 05:22:23;;;;;;;1.47;1.17;;;14.30;91.50;;;;;;5040912;28;20455;-51
2023/08/29 05:24:49;;;;;;;3.23;1.20;;;14.30;99.90;;;;;;5035112;28;20462;-51
2023/08/29 05:27:17;;;;;;;2.03;1.50;;;14.40;94.90;;;;;;5036308;28;20596;-51
2023/08/29 05:29:44;;;;;;;8.10;1.43;;;14.40;98.70;;;;;;5038887;28;20507;-51
2023/08/29 05:32:10;;;;;;;1.43;1.20;;;14.40;92.90;;;;;;5025096;28;22569;-51
2023/08/29 05:34:37;;;;;;;3.70;1.60;;;14.40;98.60;;;;;;5040755;28;20462;-51
2023/08/29 05:37:04;;;;;;;1.10;1.10;;;14.50;98.70;;;;;;5045133;28;20486;-51
2023/08/29 05:39:31;;;;;;;1.30;1.00;;;14.40;99.90;;;;;;5031536;28;20947;-51
2023/08/29 05:41:57;;;;;;;6.37;1.63;;;14.50;93.50;;;;;;5032220;28;20463;-51
2023/08/29 05:44:25;;;;;;;1.80;1.33;;;14.50;92.60;;;;;;5030407;28;20455;-51
2023/08/29 05:46:52;;;;;;;1.33;1.10;;;14.50;98.10;;;;;;5046094;28;20555;-51
2023/08/29 05:49:18;;;;;;;1.83;1.20;;;14.50;99.90;;;;;;5044665;28;20817;-51
2023/08/29 05:51:45;;;;;;;1.70;1.20;;;14.50;99.90;;;;;;5046467;28;20943;-50
2023/08/29 05:54:12;;;;;;;2.63;1.40;;;14.60;99.90;;;;;;5028896;28;20486;-52
2023/08/29 05:56:38;;;;;;;2.40;1.40;;;14.60;95.10;;;;;;5033545;28;20486;-52
2023/08/29 05:59:05;;;;;;;1.90;1.20;;;14.60;94.90;;;;;;5046289;28;20523;-51
2023/08/29 06:01:35;;;;;;;2.17;1.20;;;14.60;88.00;;;;;;5031125;28;20876;-51
2023/08/29 06:04:02;;;;;;;1.90;1.40;;;14.60;78.70;;;;;;5026459;28;20884;-51
2023/08/29 06:06:28;;;;;;;2.63;1.50;;;14.70;84.80;;;;;;5047389;28;20490;-52
2023/08/29 06:08:55;;;;;;;1.57;1.47;;;14.70;79.00;;;;;;5034066;28;20458;-52
2023/08/29 06:11:22;;;;;;;1.40;1.30;;;14.80;99.90;;;;;;5034490;28;20470;-51
2023/08/29 06:13:48;;;;;;;1.10;1.10;;;14.80;99.90;;;;;;5036147;28;20525;-50
2023/08/29 06:16:15;;;;;;;1.77;1.47;;;14.80;99.90;;;;;;5037596;28;20485;-51
2023/08/29 06:18:43;;;;;;;2.17;1.20;;;14.70;99.90;;;;;;5028931;28;20455;-51
2023/08/29 06:21:10;;;;;;;3.70;1.70;;;14.70;99.90;;;;;;5031135;28;20497;-51
2023/08/29 06:23:38;;;;;;;4.23;1.53;;;14.70;99.90;;;;;;5032217;28;20545;-51
2023/08/29 06:26:05;;;;;;;1.30;1.20;;;14.70;99.90;;;;;;5029080;28;20537;-52
2023/08/29 06:28:33;;;;;;;3.37;1.40;;;14.70;99.90;;;;;;5025127;28;20457;-52
2023/08/29 06:31:04;;;;;;;5.20;1.50;;;14.80;99.90;;;;;;5030727;28;20467;-51
2023/08/29 06:33:31;;;;;;;3.57;1.53;;;14.80;99.90;;;;;;5033094;28;20490;-51
2023/08/29 06:35:59;;;;;;;1.57;1.47;;;14.80;99.90;;;;;;5024416;28;20463;-50
2023/08/29 06:38:26;;;;;;;3.43;1.30;;;14.80;99.90;;;;;;5040169;28;20490;-52
2023/08/29 06:40:56;;;;;;;2.07;1.60;;;14.90;99.90;;;;;;5031958;28;20490;-50
2023/08/29 06:43:23;;;;;;;10.13;1.30;;;14.90;99.90;;;;;;5025032;28;20513;-52
2023/08/29 06:45:49;;;;;;;5.33;1.70;;;15.00;99.90;;;;;;5022315;28;20991;-51
2023/08/29 06:48:16;;;;;;;2.97;1.40;;;15.00;99.90;;;;;;5040987;28;20564;-52
2023/08/29 06:50:43;;;;;;;1.90;1.43;;;15.00;99.90;;;;;;5035580;28;21173;-51
2023/08/29 06:53:11;;;;;;;4.77;1.80;;;15.00;96.10;;;;;;5025350;28;20499;-52
2023/08/29 06:55:37;;;;;;;1.93;1.50;;;15.10;97.30;;;;;;5029506;28;20482;-50
2023/08/29 06:58:04;;;;;;;1.90;1.37;;;15.10;99.90;;;;;;5025714;28;20560;-51
2023/08/29 07:00:31;;;;;;;3.67;1.77;;;15.10;99.90;;;;;;5026610;28;20460;-52
2023/08/29 07:02:58;;;;;;;9.30;2.20;;;15.10;99.90;;;;;;5027503;28;20451;-50
2023/08/29 07:05:24;;;;;;;4.50;1.80;;;15.20;99.90;;;;;;5032370;28;20450;-51
2023/08/29 07:07:51;;;;;;;3.23;1.63;;;15.20;99.90;;;;;;5026527;28;20514;-50
2023/08/29 07:10:19;;;;;;;1.60;1.50;;;15.20;99.90;;;;;;5031208;28;20517;-50
2023/08/29 07:12:46;;;;;;;2.10;1.77;;;15.20;99.90;;;;;;5036214;28;20494;-51
2023/08/29 07:15:13;;;;;;;1.87;1.77;;;15.20;99.90;;;;;;5020717;28;20463;-51
2023/08/29 07:17:40;;;;;;;1.70;1.53;;;15.30;99.90;;;;;;5049234;28;20540;-51
2023/08/29 07:20:08;;;;;;;1.73;1.50;;;15.30;99.90;;;;;;5030954;28;20466;-51
2023/08/29 07:22:35;;;;;;;7.70;1.93;;;15.30;99.90;;;;;;5025655;28;20543;-51
2023/08/29 07:25:02;;;;;;;5.93;2.20;;;15.30;86.00;;;;;;5030791;28;20520;-52
2023/08/29 07:27:30;;;;;;;3.37;1.90;;;15.30;23.00;;;;;;5024489;28;20537;-52
2023/08/29 07:29:57;;;;;;;2.20;1.80;;;15.30;20.50;;;;;;5033015;28;20439;-52
2023/08/29 07:32:24;;;;;;;4.07;1.80;;;15.30;22.20;;;;;;5032585;28;20459;-51
2023/08/29 07:34:52;;;;;;;2.77;1.80;;;15.30;23.30;;;;;;5032902;28;20483;-51
2023/08/29 07:37:18;;;;;;;5.70;2.10;;;15.40;21.60;;;;;;5030709;28;20483;-51
2023/08/29 07:39:45;;;;;;;4.87;2.00;;;15.40;86.30;;;;;;5040914;28;20497;-51
2023/08/29 07:42:11;;;;;;;2.77;1.87;;;15.40;99.90;;;;;;5029500;28;20972;-51
2023/08/29 07:44:39;;;;;;;2.50;1.87;;;15.40;99.90;;;;;;5030940;28;20463;-52
2023/08/29 07:47:06;;;;;;;2.67;1.70;;;15.50;96.00;;;;;;5031706;28;20490;-53
2023/08/29 07:49:32;;;;;;;2.10;2.00;;;15.60;93.10;;;;;;5024236;28;20439;-53
2023/08/29 07:51:59;;;;;;;4.73;2.13;;;15.60;94.80;;;;;;5039687;28;20462;-53
2023/08/29 07:54:26;;;;;;;1.70;1.60;;;15.60;87.00;;;;;;5034781;28;20518;-54
2023/08/29 07:56:53;;;;;;;4.10;1.80;;;15.70;88.50;;;;;;5023888;28;20490;-53
2023/08/29 07:59:20;;;;;;;4.30;2.00;;;15.70;99.90;;;;;;5028569;28;20458;-53
2023/08/29 08:01:48;;;;;;;5.57;2.40;;;15.70;99.90;;;;;;5026007;28;20464;-53
2023/08/29 08:04:15;;;;;;;3.80;2.20;;;15.70;99.90;;;;;;5025664;28;20459;-53
2023/08/29 08:06:41;;;;;;;2.30;1.90;;;15.70;99.90;;;;;;5037133;28;20991;-53
2023/08/29 08:09:09;;;;;;;2.23;1.60;;;15.70;99.90;;;;;;5028025;28;20475;-54
2023/08/29 08:11:35;;;;;;;7.73;2.03;;;15.70;99.90;;;;;;5025387;28;20520;-54
2023/08/29 08:14:03;;;;;;;2.33;1.80;;;15.70;99.90;;;;;;5029594;28;21030;-53
2023/08/29 08:16:29;;;;;;;4.70;1.90;;;15.70;99.90;;;;;;5026952;28;20553;-54
2023/08/29 08:18:57;;;;;;;3.47;2.10;;;15.70;99.90;;;;;;5024510;28;20548;-53
2023/08/29 08:21:24;;;;;;;3.00;1.53;;;15.80;99.90;;;;;;5026895;28;20881;-54
2023/08/29 08:23:50;;;;;;;2.37;2.17;;;15.80;99.90;;;;;;5041968;28;20511;-54
2023/08/29 08:26:17;;;;;;;8.33;2.20;;;15.80;99.90;;;;;;5028709;28;20554;-54
2023/08/29 08:28:44;;;;;;;3.80;2.10;;;15.80;99.90;;;;;;5026670;28;20490;-54
2023/08/29 08:31:11;;;;;;;2.97;2.27;;;15.90;99.90;;;;;;5023808;28;20510;-54
2023/08/29 08:33:40;;;;;;;4.73;2.13;;;15.90;99.90;;;;;;5016640;28;20510;-54
2023/08/29 08:36:08;;;;;;;2.43;1.87;;;15.90;99.90;;;;;;5026379;28;21143;-53
2023/08/29 08:38:35;;;;;;;4.40;1.97;;;15.90;99.90;;;;;;5030753;28;20486;-54
2023/08/29 08:41:04;;;;;;;2.07;1.87;;;15.90;99.90;;;;;;5030879;28;20815;-53
2023/08/29 08:43:32;;;;;;;2.40;2.20;;;15.90;99.90;;;;;;5037967;28;22155;-54
2023/08/29 08:45:59;;;;;;;2.43;2.23;;;16.00;99.90;;;;;;5029242;28;20462;-53
2023/08/29 08:48:26;;;;;;;2.80;2.43;;;16.00;99.90;;;;;;5032717;28;20520;-53
2023/08/29 08:50:53;;;;;;;3.43;2.07;;;15.80;99.90;;;;;;5044989;28;20498;-53
2023/08/29 08:53:22;;;;;;;2.30;2.10;;;15.90;99.90;;;;;;5025870;28;21148;-53
2023/08/29 08:55:49;;;;;;;2.20;2.00;;;15.80;99.90;;;;;;5028954;28;20889;-53
2023/08/29 08:58:17;;;;;;;2.20;2.10;;;15.80;99.90;;;;;;5026400;28;20857;-54
2023/08/29 09:00:44;;;;;;;2.03;1.70;;;15.80;99.90;;;;;;5017423;28;20459;-53
2023/08/29 09:03:11;;;;;;;2.57;2.27;;;15.80;99.90;;;;;;5026463;28;20952;-53
2023/08/29 09:05:37;;;;;;;5.43;2.30;;;15.80;99.90;;;;;;5023790;28;20491;-54
2023/08/29 09:08:04;;;;;;;2.47;2.27;;;15.80;99.90;;;;;;5025984;28;20763;-52
2023/08/29 09:10:39;;;;;;;2.40;2.20;;;15.90;99.90;;;;;;5025273;28;20899;-53
2023/08/29 09:13:06;;;;;;;2.97;1.87;;;15.90;99.90;;;;;;5033135;28;20468;-54
2023/08/29 09:15:34;;;;;;;4.40;2.13;;;16.00;99.90;;;;;;5026767;28;20486;-53
2023/08/29 09:18:01;;;;;;;4.93;2.50;;;16.10;99.90;;;;;;5037694;28;20485;-53
2023/08/29 09:20:29;;;;;;;4.87;2.53;;;16.20;99.90;;;;;;5030535;28;20534;-54
2023/08/29 09:22:56;;;;;;;2.80;2.07;;;16.30;99.90;;;;;;5030933;28;20538;-53
2023/08/29 09:25:24;;;;;;;2.10;1.90;;;16.40;99.90;;;;;;5030750;28;20482;-53
2023/08/29 09:27:53;;;;;;;5.53;2.57;;;16.50;99.90;;;;;;5036257;28;20477;-54
2023/08/29 09:30:20;;;;;;;2.10;1.77;;;16.50;21.30;;;;;;5035342;28;20454;-54
2023/08/29 09:32:48;;;;;;;4.00;2.47;;;16.60;20.60;;;;;;5031709;28;20596;-53
2023/08/29 09:35:16;;;;;;;3.67;2.17;;;16.60;33.30;;;;;;5034172;28;20486;-53
2023/08/29 09:37:50;;;;;;;2.63;2.00;;;16.60;28.20;;;;;;5027617;28;20478;-54
2023/08/29 09:40:17;;;;;;;2.40;2.20;;;16.70;30.90;;;;;;5029946;28;20466;-54
2023/08/29 09:42:54;;;;;;;2.20;2.10;;;16.80;33.50;;;;;;5026763;28;20462;-53
2023/08/29 09:45:21;;;;;;;2.83;2.50;;;16.80;32.00;;;;;;5031710;28;20450;-53
2023/08/29 09:47:48;;;;;;;2.83;2.33;;;16.80;31.50;;;;;;5032416;28;20575;-52
2023/08/29 09:50:14;;;;;;;2.57;2.37;;;16.80;37.80;;;;;;5039119;28;20491;-52
2023/08/29 09:52:41;;;;;;;2.23;2.03;;;16.80;38.20;;;;;;5036517;28;20524;-52
2023/08/29 09:55:12;;;;;;;4.70;2.40;;;16.80;40.90;;;;;;5032353;28;20506;-52
2023/08/29 09:57:39;;;;;;;2.10;1.80;;;16.80;44.20;;;;;;5035009;28;20510;-52
2023/08/29 10:00:10;;;;;;;2.20;2.00;;;16.80;48.10;;;;;;5032752;28;20495;-51
2023/08/29 10:02:40;;;;;;;5.40;2.30;;;16.80;48.00;;;;;;5029681;28;20486;-51
2023/08/29 10:05:10;;;;;;;6.17;2.27;;;16.90;45.00;;;;;;5033426;28;20509;-52
2023/08/29 10:07:41;;;;;;;7.50;2.07;;;16.90;41.70;;;;;;5032571;28;20482;-51
2023/08/29 10:10:10;;;;;;;9.70;1.80;;;17.10;44.70;;;;;;5036475;28;20856;-52
2023/08/29 10:12:37;;;;;;;5.70;2.10;;;17.10;48.50;;;;;;5028167;28;20458;-52
2023/08/29 10:15:05;;;;;;;2.33;2.23;;;17.10;47.20;;;;;;5031901;28;20544;-52
2023/08/29 10:17:35;;;;;;;3.20;2.00;;;17.10;48.30;;;;;;5031783;28;20568;-51
2023/08/29 10:20:09;;;;;;;2.40;2.20;;;17.10;45.70;;;;;;5034531;28;20541;-52
2023/08/29 10:22:38;;;;;;;2.97;1.90;;;17.10;47.60;;;;;;5029116;28;20469;-51
2023/08/29 10:25:05;;;;;;;3.37;2.40;;;17.00;44.00;;;;;;5031211;28;20462;-52
2023/08/29 10:27:33;;;;;;;4.00;2.30;;;17.00;49.20;;;;;;5032175;28;20535;-51
2023/08/29 10:29:59;;;;;;;5.20;2.30;;;17.10;44.90;;;;;;5029012;28;20880;-51
2023/08/29 10:32:28;;;;;;;2.90;2.70;;;17.10;49.20;;;;;;5031792;28;20462;-52
2023/08/29 10:34:56;;;;;;;4.07;2.60;;;17.10;59.30;;;;;;5027130;28;20999;-52
2023/08/29 10:37:23;;;;;;;3.27;2.43;;;17.10;59.60;;;;;;5040215;28;20532;-51
2023/08/29 10:39:51;;;;;;;4.07;2.60;;;17.20;59.80;;;;;;5038884;28;20893;-52
2023/08/29 10:42:18;;;;;;;5.43;2.57;;;17.20;69.80;;;;;;5030855;28;20462;-52
2023/08/29 10:44:46;;;;;;;2.77;2.57;;;17.10;66.30;;;;;;5030777;28;20536;-52
2023/08/29 10:47:19;;;;;;;3.03;2.70;;;17.10;68.40;;;;;;5037521;28;20525;-51
2023/08/29 10:49:46;;;;;;;7.50;2.90;;;17.10;62.80;;;;;;5026944;28;20464;-52
2023/08/29 10:52:18;;;;;;;4.33;3.00;;;17.00;68.90;;;;;;5028259;28;20462;-51
2023/08/29 10:54:45;;;;;;;7.73;2.93;;;17.10;66.00;;;;;;5027269;28;20898;-52
2023/08/29 10:57:28;;;;;;;5.33;3.27;;;17.10;63.00;;;;;;5036932;28;20946;-51
2023/08/29 10:59:55;;;;;;;3.23;2.90;;;17.20;62.80;;;;;;5029254;28;20568;-51
2023/08/29 11:02:23;;;;;;;3.43;3.10;;;17.20;63.40;;;;;;5027876;28;20530;-52
2023/08/29 11:04:51;;;;;;;5.10;3.23;;;17.30;61.90;;;;;;5030684;28;20459;-51
2023/08/29 11:07:27;;;;;;;3.50;3.20;;;17.30;71.20;;;;;;5037113;28;20493;-51
2023/08/29 11:10:16;;;;;;;6.97;3.37;;;17.30;67.00;;;;;;5029250;28;20539;-52
2023/08/29 11:13:06;;;;;;;3.80;3.50;;;17.40;63.90;;;;;;5033247;28;20438;-52
2023/08/29 11:16:03;;;;;;;5.20;3.87;;;17.30;76.40;;;;;;5025646;28;21047;-52
2023/08/29 11:18:32;;;;;;;4.43;4.03;;;17.30;72.60;;;;;;5037059;28;21026;-51
2023/08/29 11:21:03;;;;;;;4.87;3.67;;;17.30;74.10;;;;;;5031198;28;20497;-52
2023/08/29 11:23:35;;;;;;;3.83;3.53;;;17.30;72.70;;;;;;5040924;28;20579;-52
2023/08/29 11:26:02;;;;;;;4.73;3.80;;;17.30;69.00;;;;;;5032977;28;20443;-52
2023/08/29 11:28:28;;;;;;;6.40;3.80;;;17.40;63.70;;;;;;5030665;28;20468;-52
2023/08/29 11:30:55;;;;;;;4.73;3.93;;;17.40;66.20;;;;;;5030580;28;20944;-52
2023/08/29 11:33:30;;;;;;;7.90;3.83;;;17.40;72.50;;;;;;5040964;28;20498;-52
2023/08/29 11:35:57;;;;;;;5.03;4.50;;;17.50;70.00;;;;;;5031646;28;20533;-52
2023/08/29 11:38:28;;;;;;;6.70;6.13;;;17.50;73.70;;;;;;5039799;28;20548;-52
2023/08/29 11:40:56;;;;;;;7.60;6.90;;;17.60;80.00;;;;;;5029679;28;20469;-52
2023/08/29 11:43:23;;;;;;;8.23;6.60;;;17.60;75.60;;;;;;5032561;28;20479;-52
2023/08/29 11:45:51;;;;;;;8.63;7.43;;;17.70;80.20;;;;;;5031399;28;20458;-52
2023/08/29 11:48:22;;;;;;;8.00;7.20;;;17.80;79.90;;;;;;5019040;28;21034;-51
2023/08/29 11:50:51;;;;;;;8.07;7.27;;;17.90;87.30;;;;;;5030468;28;20848;-51
2023/08/29 11:53:22;;;;;;;8.13;6.60;;;17.90;98.80;;;;;;5030846;28;20597;-51
2023/08/29 11:55:49;;;;;;;5.00;4.50;;;18.20;94.90;;;;;;5031507;28;20490;-53
2023/08/29 11:58:17;;;;;;;3.40;3.20;;;18.30;99.90;;;;;;5031594;28;20536;-52
2023/08/29 12:00:44;;;;;;;6.03;4.20;;;18.50;99.90;;;;;;5029477;28;20463;-52
2023/08/29 12:03:10;;;;;;;4.77;3.83;;;18.80;99.90;;;;;;5028122;28;20489;-52
2023/08/29 12:05:37;;;;;;;4.30;3.23;;;19.10;99.90;;;;;;5029465;28;20451;-51
2023/08/29 12:08:04;;;;;;;2.90;2.70;;;19.10;99.90;;;;;;5037946;28;20462;-52
2023/08/29 12:10:31;;;;;;;4.40;3.40;;;19.20;99.90;;;;;;5029944;28;21030;-52
2023/08/29 12:13:11;;;;;;;3.83;2.40;;;19.10;99.90;;;;;;5036484;28;20967;-54
2023/08/29 12:15:39;;;;;;;2.17;2.00;;;19.00;99.90;;;;;;5029922;28;20490;-52
2023/08/29 12:18:06;;;;;;;2.47;2.27;;;18.90;99.90;;;;;;5028687;28;21019;-52
2023/08/29 12:20:33;;;;;;;1.80;1.70;;;18.70;99.90;;;;;;5033115;28;20470;-51
2023/08/29 12:23:00;;;;;;;1.10;1.03;;;18.50;99.90;;;;;;5043636;28;20450;-52
2023/08/29 12:25:27;;;;;;;1.43;1.33;;;18.40;99.90;;;;;;5032011;28;20487;-53
2023/08/29 12:27:53;;;;;;;3.00;2.00;;;18.40;99.90;;;;;;5029237;28;20514;-52
2023/08/29 12:30:20;;;;;;;1.43;1.33;;;18.40;99.90;;;;;;5028638;28;20544;-52
2023/08/29 12:32:48;;;;;;;1.33;1.33;;;18.40;99.90;;;;;;5023445;28;20814;-51
2023/08/29 12:35:17;;;;;;;1.93;1.80;;;18.30;99.90;;;;;;5033690;28;20537;-53
2023/08/29 12:37:44;;;;;;;11.00;1.30;;;18.30;99.90;;;;;;5038112;28;20886;-53
2023/08/29 12:40:12;;;;;;;2.07;1.13;;;18.30;99.90;;;;;;5031554;28;20493;-53
2023/08/29 12:42:39;;;;;;;3.93;1.40;;;18.20;99.90;;;;;;5030854;28;20459;-53
2023/08/29 12:45:07;;;;;;;4.30;1.30;;;18.20;99.90;;;;;;5032335;28;20462;-52
2023/08/29 12:47:34;;;;;;;2.80;1.23;;;18.20;99.90;;;;;;5037543;28;20491;-52
2023/08/29 12:50:03;;;;;;;2.83;1.10;;;18.20;99.90;;;;;;5027319;28;20458;-53
2023/08/29 12:52:29;;;;;;;2.23;1.07;;;18.20;99.90;;;;;;5039794;28;20842;-53